This is the latest recevied weather packets stored in our database for station/object K6FAK-13. If no packets are shown the sender has not sent any weather packets the latest 10 day(s).
| Time | Temp. | Humidity | Pressure | Rain* | Wind** | Luminosity | Snow |
|---|---|---|---|---|---|---|---|
| 1777958344 | 12.22° C | 99% | 1017.6 hPa | 4.83 mm | - | 0 W/m² | - |
| 1777958041 | 12.22° C | 99% | 1017.5 hPa | 4.32 mm | - | 0 W/m² | - |
| 1777957739 | 12.22° C | 99% | 1017.6 hPa | 3.05 mm | - | 0 W/m² | - |
| 1777957437 | 12.22° C | 99% | 1017.6 hPa | 1.78 mm | - | 0 W/m² | - |
| 1777957134 | 12.22° C | 99% | 1017.5 hPa | 1.27 mm | - | 0 W/m² | - |
| 1777956830 | 12.22° C | 99% | 1017.5 hPa | 0 mm | - | 0 W/m² | - |
| 1777956527 | 12.22° C | 99% | 1017.5 hPa | 1.78 mm | - | 0 W/m² | - |
| 1777956224 | 12.22° C | 99% | 1017.4 hPa | 1.78 mm | - | 0 W/m² | - |
| 1777955921 | 12.22° C | 99% | 1017.3 hPa | 1.27 mm | - | 0 W/m² | - |
| 1777955617 | 12.22° C | 99% | 1017.5 hPa | 1.27 mm | - | 0 W/m² | - |
| 1777955313 | 12.22° C | 99% | 1017.6 hPa | 1.78 mm | - | 0 W/m² | - |
| 1777955010 | 12.22° C | 99% | 1017.8 hPa | 3.56 mm | - | 0 W/m² | - |
| 1777954707 | 12.22° C | 99% | 1017.6 hPa | 3.05 mm | - | 0 W/m² | - |
| 1777954405 | 12.22° C | 99% | 1017.9 hPa | 3.05 mm | - | 0 W/m² | - |
| 1777954101 | 12.22° C | 99% | 1017.8 hPa | 4.83 mm | - | 0 W/m² | - |
| 1777953496 | 12.22° C | 99% | 1017.9 hPa | 6.1 mm | - | 0 W/m² | - |
| 1777943494 | 14.44° C | 87% | 1017.2 hPa | 0 mm | - | 39 W/m² | - |
| 1777943194 | 14.44° C | 86% | 1017.4 hPa | 0 mm | - | 27 W/m² | - |
| 1777940164 | 15° C | 77% | 1016.9 hPa | 0 mm | - | 39 W/m² | - |
| 1777938346 | 16.11° C | 75% | 1017.2 hPa | 0 mm | - | 49 W/m² | - |
| 1777934406 | 17.22° C | 65% | 1016.8 hPa | 0 mm | - | 87 W/m² | - |
| 1777929554 | 17.78° C | 65% | 1017.4 hPa | 0 mm | - | 241 W/m² | - |
| 1777929250 | 17.78° C | 66% | 1017.5 hPa | 0 mm | - | 226 W/m² | - |
| 1777928039 | 17.78° C | 66% | 1017.3 hPa | 0 mm | - | 262 W/m² | - |
| 1777927435 | 17.22° C | 66% | 1017.4 hPa | 0 mm | - | 260 W/m² | - |
* Rain latest hour (hover to see other rain measurements)
** Current wind speed in m/s (hover to see current wind gust speed)